Tsukuba Maru — 3FUJ4 — position and weather

sailwx.info

Track history (hours):
 
Tides and Currents Weather Stations Pressure Air Temp Water Temp Dewpoint Dewpoint Depression Visibility Wind Speed Wind Dir Waves Ship Positions

Tsukuba Maru

Last reported at 2017-Dec-03 04:33 UTC. Time now 2017-Dec-15 21:51 UTC.
Position N 33°05' E 132°11'.
Warning: this ship's position is 12 days out of date.

Length 299 m; draft 11.4 m.

Type: Cargo ship. MMSI: 352300000.

Date/timePositionNaut miles runAvg speedWind from/ knotsBaromVisibWave heightAir tempDewpointWater temp
2017-Dec-03 04:33N 33°05' E 132°11'114.3
2017-Dec-03 04:30N 33°06' E 132°10'713.6
2017-Dec-03 04:00N 33°10' E 132°04'610.9
2017-Dec-03 03:30N 33°14' E 131°59'4 9.1
2017-Dec-03 03:00N 33°18' E 131°59'612.7
2017-Dec-03 02:30N 33°20' E 131°52'612.5
2017-Dec-03 02:01N 33°19' E 131°44'510.7
2017-Dec-03 01:30N 33°17' E 131°38'1 0.0
2017-Dec-01 10:34N 33°16' E 131°38'0 0.5
2017-Dec-01 10:28N 33°16' E 131°38'0 0.7
2017-Dec-01 10:00N 33°17' E 131°38'1 1.0
2017-Dec-01 09:30N 33°17' E 131°38'1 1.7
2017-Dec-01 09:00N 33°18' E 131°39'2 4.4
2017-Dec-01 08:30N 33°19' E 131°41'4 7.8
2017-Dec-01 08:00N 33°17' E 131°46'1 1.9
2017-Dec-01 07:24N 33°17' E 131°47'0 0.1
2017-Dec-01 07:00N 33°17' E 131°47'0 0.0
2017-Dec-01 06:24N 33°17' E 131°47'0 0.0
2017-Dec-01 06:00N 33°17' E 131°47'0 0.1
2017-Dec-01 05:24N 33°17' E 131°47'0 0.1
2017-Dec-01 04:54N 33°17' E 131°47'0 0.1
2017-Dec-01 04:30N 33°17' E 131°47'0 0.0
2017-Dec-01 03:54N 33°17' E 131°47'0 0.0
2017-Dec-01 03:30N 33°17' E 131°47'0 0.1
2017-Dec-01 03:00N 33°17' E 131°47'0 0.0
2017-Dec-01 02:30N 33°17' E 131°47'0 0.0
2017-Dec-01 02:00N 33°17' E 131°47'0 0.0
2017-Dec-01 01:30N 33°17' E 131°47'0 0.0
2017-Dec-01 00:54N 33°17' E 131°47'0 0.1
2017-Dec-01 00:30N 33°17' E 131°47'0 0.0
2017-Dec-01 00:00N 33°17' E 131°47'0 0.0
2017-Nov-30 23:24N 33°17' E 131°47'0 0.1
2017-Nov-30 22:54N 33°17' E 131°47'0 0.0
2017-Nov-30 22:30N 33°17' E 131°47'0 0.1
2017-Nov-30 22:00N 33°17' E 131°47'0 0.0
2017-Nov-30 21:12N 33°17' E 131°47'0 0.0
2017-Nov-30 20:54N 33°17' E 131°47'0 0.0
2017-Nov-30 20:18N 33°17' E 131°47'0 0.1
2017-Nov-30 19:30N 33°17' E 131°47'0 0.0
2017-Nov-30 18:54N 33°16' E 131°47'0 0.2
2017-Nov-30 18:03N 33°17' E 131°47'0 0.4
2017-Nov-30 18:00N 33°17' E 131°47'0 0.2
2017-Nov-30 17:30N 33°17' E 131°47'0 0.1
2017-Nov-30 16:54N 33°17' E 131°47'0 0.2
2017-Nov-30 16:30N 33°17' E 131°47'0 0.1
2017-Nov-30 15:54N 33°17' E 131°47'0 0.1
2017-Nov-30 15:30N 33°17' E 131°47'0 0.0
2017-Nov-30 15:00N 33°17' E 131°47'0 0.0
2017-Nov-30 14:12N 33°17' E 131°47'0 0.0
2017-Nov-30 13:54N 33°17' E 131°47'0 0.0
2017-Nov-30 13:06N 33°17' E 131°47'0 0.0
2017-Nov-30 13:00N 33°17' E 131°47'0 0.0
2017-Nov-30 12:24N 33°17' E 131°47'0 0.0
2017-Nov-30 12:00N 33°17' E 131°47'0 0.0
2017-Nov-30 11:24N 33°17' E 131°47'0 0.0
2017-Nov-30 10:54N 33°17' E 131°47'0 0.0
2017-Nov-30 10:30N 33°17' E 131°47'0 0.0
2017-Nov-30 09:48N 33°17' E 131°47'0 0.1
2017-Nov-30 09:30N 33°17' E 131°47'0 0.0
2017-Nov-30 09:00N 33°17' E 131°47'0 0.1
2017-Nov-30 08:30N 33°17' E 131°47'0 0.0
2017-Nov-30 07:48N 33°17' E 131°47'0 0.0
2017-Nov-30 06:12N 33°17' E 131°47'0 0.1
2017-Nov-30 05:42N 33°17' E 131°47'0 0.0
2017-Nov-30 05:24N 33°17' E 131°47'0 0.0
2017-Nov-30 05:00N 33°17' E 131°47'0 0.2
2017-Nov-30 04:30N 33°17' E 131°47'0 0.5
2017-Nov-30 04:00N 33°17' E 131°47'2 3.7
2017-Nov-30 03:30N 33°18' E 131°49'3 5.8
2017-Nov-30 03:00N 33°19' E 131°52'4 8.5
2017-Nov-30 02:31N 33°19' E 131°57'4 7.3
2017-Nov-30 02:01N 33°17' E 132°01'4 8.8
2017-Nov-30 01:30N 33°14' E 132°05'3 6.1
2017-Nov-30 01:00N 33°12' E 132°07'14 7.4
2017-Nov-29 23:09N 32°59' E 132°13'  
Track history (hours):
 
Tides and Currents Weather Stations Pressure Air Temp Water Temp Dewpoint Dewpoint Depression Visibility Wind Speed Wind Dir Waves Ship Positions

Tsukuba Maru

Last reported at 2017-Dec-03 04:33 UTC. Time now 2017-Dec-15 21:51 UTC.
Position N 33°05' E 132°11'.
Warning: this ship's position is 12 days out of date.

Length 299 m; draft 11.4 m.

Type: Cargo ship. MMSI: 352300000.

Date/timePositionNaut miles runAvg speedWind from/ knotsBaromVisibWave heightAir tempDewpointWater temp
2017-Dec-03 04:33N 33°05' E 132°11'114.3
2017-Dec-03 04:30N 33°06' E 132°10'713.6
2017-Dec-03 04:00N 33°10' E 132°04'610.9
2017-Dec-03 03:30N 33°14' E 131°59'4 9.1
2017-Dec-03 03:00N 33°18' E 131°59'612.7
2017-Dec-03 02:30N 33°20' E 131°52'612.5
2017-Dec-03 02:01N 33°19' E 131°44'510.7
2017-Dec-03 01:30N 33°17' E 131°38'1 0.0
2017-Dec-01 10:34N 33°16' E 131°38'0 0.5
2017-Dec-01 10:28N 33°16' E 131°38'0 0.7
2017-Dec-01 10:00N 33°17' E 131°38'1 1.0
2017-Dec-01 09:30N 33°17' E 131°38'1 1.7
2017-Dec-01 09:00N 33°18' E 131°39'2 4.4
2017-Dec-01 08:30N 33°19' E 131°41'4 7.8
2017-Dec-01 08:00N 33°17' E 131°46'1 1.9
2017-Dec-01 07:24N 33°17' E 131°47'0 0.1
2017-Dec-01 07:00N 33°17' E 131°47'0 0.0
2017-Dec-01 06:24N 33°17' E 131°47'0 0.0
2017-Dec-01 06:00N 33°17' E 131°47'0 0.1
2017-Dec-01 05:24N 33°17' E 131°47'0 0.1
2017-Dec-01 04:54N 33°17' E 131°47'0 0.1
2017-Dec-01 04:30N 33°17' E 131°47'0 0.0
2017-Dec-01 03:54N 33°17' E 131°47'0 0.0
2017-Dec-01 03:30N 33°17' E 131°47'0 0.1
2017-Dec-01 03:00N 33°17' E 131°47'0 0.0
2017-Dec-01 02:30N 33°17' E 131°47'0 0.0
2017-Dec-01 02:00N 33°17' E 131°47'0 0.0
2017-Dec-01 01:30N 33°17' E 131°47'0 0.0
2017-Dec-01 00:54N 33°17' E 131°47'0 0.1
2017-Dec-01 00:30N 33°17' E 131°47'0 0.0
2017-Dec-01 00:00N 33°17' E 131°47'0 0.0
2017-Nov-30 23:24N 33°17' E 131°47'0 0.1
2017-Nov-30 22:54N 33°17' E 131°47'0 0.0
2017-Nov-30 22:30N 33°17' E 131°47'0 0.1
2017-Nov-30 22:00N 33°17' E 131°47'0 0.0
2017-Nov-30 21:12N 33°17' E 131°47'0 0.0
2017-Nov-30 20:54N 33°17' E 131°47'0 0.0
2017-Nov-30 20:18N 33°17' E 131°47'0 0.1
2017-Nov-30 19:30N 33°17' E 131°47'0 0.0
2017-Nov-30 18:54N 33°16' E 131°47'0 0.2
2017-Nov-30 18:03N 33°17' E 131°47'0 0.4
2017-Nov-30 18:00N 33°17' E 131°47'0 0.2
2017-Nov-30 17:30N 33°17' E 131°47'0 0.1
2017-Nov-30 16:54N 33°17' E 131°47'0 0.2
2017-Nov-30 16:30N 33°17' E 131°47'0 0.1
2017-Nov-30 15:54N 33°17' E 131°47'0 0.1
2017-Nov-30 15:30N 33°17' E 131°47'0 0.0
2017-Nov-30 15:00N 33°17' E 131°47'0 0.0
2017-Nov-30 14:12N 33°17' E 131°47'0 0.0
2017-Nov-30 13:54N 33°17' E 131°47'0 0.0
2017-Nov-30 13:06N 33°17' E 131°47'0 0.0
2017-Nov-30 13:00N 33°17' E 131°47'0 0.0
2017-Nov-30 12:24N 33°17' E 131°47'0 0.0
2017-Nov-30 12:00N 33°17' E 131°47'0 0.0
2017-Nov-30 11:24N 33°17' E 131°47'0 0.0
2017-Nov-30 10:54N 33°17' E 131°47'0 0.0
2017-Nov-30 10:30N 33°17' E 131°47'0 0.0
2017-Nov-30 09:48N 33°17' E 131°47'0 0.1
2017-Nov-30 09:30N 33°17' E 131°47'0 0.0
2017-Nov-30 09:00N 33°17' E 131°47'0 0.1
2017-Nov-30 08:30N 33°17' E 131°47'0 0.0
2017-Nov-30 07:48N 33°17' E 131°47'0 0.0
2017-Nov-30 06:12N 33°17' E 131°47'0 0.1
2017-Nov-30 05:42N 33°17' E 131°47'0 0.0
2017-Nov-30 05:24N 33°17' E 131°47'0 0.0
2017-Nov-30 05:00N 33°17' E 131°47'0 0.2
2017-Nov-30 04:30N 33°17' E 131°47'0 0.5
2017-Nov-30 04:00N 33°17' E 131°47'2 3.7
2017-Nov-30 03:30N 33°18' E 131°49'3 5.8
2017-Nov-30 03:00N 33°19' E 131°52'4 8.5
2017-Nov-30 02:31N 33°19' E 131°57'4 7.3
2017-Nov-30 02:01N 33°17' E 132°01'4 8.8
2017-Nov-30 01:30N 33°14' E 132°05'3 6.1
2017-Nov-30 01:00N 33°12' E 132°07'14 7.4
2017-Nov-29 23:09N 32°59' E 132°13'  

Dump ship's entire track history